Hanley Falls, Minnesota
Current Conditions -  °F | °C
As of 10:32 AM on Friday 21 Nov 2014 (Local Time) from KGDB Reporting Station
Clear Clear  
Wind Chill: 11°   Ceiling: Unl
Heat Index: 25°   Visibility: 7mi
Dew Point: 18°   Wind: 18mph
Humidity: 76%   Direction: 150°SSE
Pressure: 30.02"   Gusts: NA
Location:  44.69°N, 95.62°W
Report Text: KGDB 211632Z AUTO 15016KT 7SM CLR M04/M08 A3002 RMK AO2 T10411077
Loading
Personal Weather Stations






























Interactive Weather Map New forecast layout! Learn more

10-Day Weather Forecast

Advertisements
Track Severe Weather on mobile